Time;durP1;ratioP1;P1;durP2;ratioP2;P2;SDS_P1;SDS_P2;PMS_P1;PMS_P2;Temp;Humidity;BMP_temperature;BMP_pressure;BME280_temperature;BME280_humidity;BME280_pressure;Samples;Min_cycle;Max_cycle;Signal;HPM_P1;HPM_P2
2022/02/03 00:00:06;;;;;;;23.58;14.85;;;;;;;-1.33;100.00;94104.28;4963072;28;20562;-76
2022/02/03 00:02:38;;;;;;;26.42;16.85;;;;;;;-1.17;100.00;94113.09;4964210;28;20031;-77
2022/02/03 00:05:13;;;;;;;25.02;17.92;;;;;;;-1.23;100.00;94117.84;4961844;28;20031;-77
2022/02/03 00:10:33;;;;;;;22.70;15.48;;;;;;;-1.27;100.00;94113.94;4948347;28;20039;-77
2022/02/03 00:24:16;;;;;;;27.38;16.17;;;;;;;-1.29;100.00;94121.69;4948232;29;20034;-77
2022/02/03 00:27:03;;;;;;;26.40;15.70;;;;;;;-1.29;100.00;94119.16;4947448;29;20031;-77
2022/02/03 00:29:48;;;;;;;26.98;15.38;;;;;;;-1.27;100.00;94117.28;4947409;29;20031;-77
2022/02/03 00:32:41;;;;;;;25.25;16.15;;;;;;;-1.20;100.00;94115.06;4933959;29;20039;-77
2022/02/03 00:35:22;;;;;;;24.20;15.25;;;;;;;-1.21;100.00;94118.53;4948600;28;20034;-77
2022/02/03 00:48:40;;;;;;;26.45;17.33;;;;;;;-1.17;100.00;94123.25;4951949;29;20050;-76
2022/02/03 00:51:06;;;;;;;29.23;18.05;;;;;;;-1.15;100.00;94115.50;4950439;29;20046;-76
2022/02/03 00:53:34;;;;;;;23.05;16.40;;;;;;;-1.11;100.00;94129.56;4950783;29;20500;-76
2022/02/03 00:56:09;;;;;;;25.92;16.45;;;;;;;-1.19;100.00;94130.16;4949860;29;20046;-76
2022/02/03 00:58:40;;;;;;;23.08;14.88;;;;;;;-1.12;100.00;94127.97;4951278;28;20085;-76
2022/02/03 01:01:06;;;;;;;24.20;14.65;;;;;;;-1.07;100.00;94141.13;4949851;29;20035;-76
2022/02/03 01:03:32;;;;;;;22.77;15.05;;;;;;;-1.06;100.00;94140.97;4950437;29;20039;-76
2022/02/03 01:06:00;;;;;;;23.23;15.75;;;;;;;-1.06;100.00;94140.97;4950542;29;20631;-76
2022/02/03 01:08:27;;;;;;;26.05;16.38;;;;;;;-0.93;100.00;94140.03;4951384;28;20031;-75
2022/02/03 01:11:11;;;;;;;23.20;15.50;;;;;;;-0.99;100.00;94136.22;4952000;28;20174;-75
2022/02/03 01:13:46;;;;;;;26.67;16.85;;;;;;;-0.98;100.00;94132.75;4949753;29;20020;-75
2022/02/03 01:33:25;;;;;;;22.98;16.00;;;;;;;-0.82;100.00;94133.16;4949966;29;20042;-76
2022/02/03 01:45:54;;;;;;;27.00;18.60;;;;;;;-0.89;100.00;94149.81;4969764;28;20041;-75
2022/02/03 01:53:33;;;;;;;27.17;18.52;;;;;;;-0.78;100.00;94143.88;4968859;28;20042;-75
2022/02/03 01:56:12;;;;;;;29.38;17.15;;;;;;;-0.85;100.00;94148.63;4968586;28;20485;-75
2022/02/03 01:58:48;;;;;;;31.90;18.85;;;;;;;-0.90;100.00;94144.88;4937253;29;20078;-75
2022/02/03 02:01:25;;;;;;;25.23;16.52;;;;;;;-0.86;100.00;94143.66;4948149;29;20035;-75
2022/02/03 02:04:11;;;;;;;24.50;17.67;;;;;;;-0.81;100.00;94152.56;4949573;29;20042;-75
2022/02/03 02:06:48;;;;;;;26.77;16.98;;;;;;;-0.89;100.00;94161.69;4950605;28;20035;-75
2022/02/03 02:09:32;;;;;;;25.23;17.17;;;;;;;-1.01;100.00;94160.13;4949859;28;20035;-75
2022/02/03 02:12:48;;;;;;;23.33;16.27;;;;;;;-1.12;100.00;94166.06;4951146;28;20031;-75
2022/02/03 02:43:21;;;;;;;26.25;20.30;;;;;;;-0.11;100.00;94195.16;4968654;28;20045;-76
2022/02/03 02:46:08;;;;;;;26.50;18.58;;;;;;;-0.10;100.00;94191.69;4969374;28;20467;-76
2022/02/03 02:48:33;;;;;;;28.50;21.48;;;;;;;-0.03;100.00;94200.41;4968169;28;20118;-76
2022/02/03 02:51:12;;;;;;;28.75;20.13;;;;;;;-0.05;100.00;94195.44;4970096;28;20117;-76
2022/02/03 02:54:32;;;;;;;27.42;19.45;;;;;;;0.09;100.00;94189.22;4951910;28;20061;-76
2022/02/03 03:35:57;;;;;;;30.23;21.55;;;;;;;-0.27;100.00;94282.06;4966834;28;20058;-76
2022/02/03 03:38:30;;;;;;;29.77;22.35;;;;;;;-0.22;100.00;94284.22;4952476;28;20026;-76
2022/02/03 03:40:56;;;;;;;33.47;22.80;;;;;;;-0.24;100.00;94288.63;4965834;28;20492;-75
2022/02/03 03:43:36;;;;;;;30.73;21.77;;;;;;;-0.23;100.00;94291.06;4973337;28;20023;-74
2022/02/03 03:46:08;;;;;;;35.58;22.90;;;;;;;-0.33;100.00;94287.66;4977901;28;20061;-75
2022/02/03 03:48:40;;;;;;;33.22;22.65;;;;;;;-0.31;100.00;94302.75;4985987;28;20084;-75
2022/02/03 03:51:10;;;;;;;26.75;19.55;;;;;;;-0.23;100.00;94308.06;4970557;28;20118;-76
2022/02/03 03:54:00;;;;;;;30.85;22.25;;;;;;;-0.29;100.00;94314.41;4968989;28;20471;-76
2022/02/03 03:56:39;;;;;;;32.05;21.40;;;;;;;-0.26;100.00;94311.66;4963338;28;20481;-76
2022/02/03 03:59:30;;;;;;;30.20;21.30;;;;;;;-0.28;100.00;94313.50;4933153;29;20059;-77
2022/02/03 04:31:37;;;;;;;26.90;19.20;;;;;;;0.00;100.00;94366.34;4990948;28;20093;-76
2022/02/03 04:40:16;;;;;;;25.13;18.60;;;;;;;-0.04;100.00;94380.25;4984995;28;20023;-76
2022/02/03 04:59:08;;;;;;;23.33;18.70;;;;;;;0.41;100.00;94416.50;4953577;28;20045;-77
2022/02/03 05:10:53;;;;;;;21.13;18.02;;;;;;;0.44;100.00;94444.28;4969758;28;20045;-76
2022/02/03 05:13:48;;;;;;;25.38;18.08;;;;;;;0.48;100.00;94448.16;4970112;28;20101;-77
2022/02/03 05:17:43;;;;;;;20.52;17.48;;;;;;;0.51;100.00;94452.22;4968460;28;20050;-77
2022/02/03 05:23:39;;;;;;;20.05;15.23;;;;;;;0.70;100.00;94452.38;4969759;28;20467;-77
2022/02/03 05:50:28;;;;;;;18.20;16.30;;;;;;;0.85;100.00;94455.41;4968328;28;20023;-77
2022/02/03 06:06:23;;;;;;;17.55;15.63;;;;;;;0.96;100.00;94479.06;4950447;29;20034;-78
2022/02/03 06:09:01;;;;;;;18.38;14.77;;;;;;;0.95;100.00;94481.75;4949319;29;20587;-77
2022/02/03 06:14:19;;;;;;;16.98;14.85;;;;;;;0.96;100.00;94499.44;4971019;28;20527;-78
2022/02/03 06:27:30;;;;;;;19.75;15.63;;;;;;;1.03;100.00;94509.97;4968920;28;20068;-78
2022/02/03 06:29:56;;;;;;;15.48;13.75;;;;;;;1.08;100.00;94512.16;4953814;28;20534;-78
2022/02/03 06:32:25;;;;;;;18.23;15.10;;;;;;;1.11;100.00;94515.25;4952166;28;20126;-78
2022/02/03 06:34:51;;;;;;;15.77;13.23;;;;;;;1.09;100.00;94514.59;4968150;28;20027;-77
2022/02/03 06:37:21;;;;;;;15.82;13.55;;;;;;;1.15;100.00;94523.47;4960644;28;20027;-76
2022/02/03 06:39:46;;;;;;;15.88;13.93;;;;;;;1.13;100.00;94515.94;4964390;28;20035;-76
2022/02/03 06:42:12;;;;;;;15.13;13.55;;;;;;;1.10;100.00;94525.56;4967303;28;20031;-77
2022/02/03 06:44:48;;;;;;;17.33;15.38;;;;;;;1.08;100.00;94541.00;4967982;28;20093;-77
2022/02/03 06:49:58;;;;;;;15.88;14.10;;;;;;;1.19;100.00;94540.13;4968886;28;20031;-78
2022/02/03 06:52:39;;;;;;;14.00;12.70;;;;;;;1.18;100.00;94536.78;4968622;28;20035;-79
2022/02/03 06:55:19;;;;;;;19.08;14.07;;;;;;;1.19;100.00;94540.91;4966446;28;20485;-78
2022/02/03 06:58:50;;;;;;;17.80;14.15;;;;;;;1.29;100.00;94552.00;4968668;28;20611;-80
2022/02/03 07:00:44;;;;;;;14.38;13.00;;;;;;;1.23;100.00;94567.78;4970786;28;20069;-76
2022/02/03 07:03:17;;;;;;;17.00;13.80;;;;;;;1.21;100.00;94567.13;4977040;28;20042;-76
2022/02/03 07:05:43;;;;;;;16.67;14.15;;;;;;;1.28;100.00;94567.44;4950690;28;20070;-76
2022/02/03 07:08:15;;;;;;;17.20;13.90;;;;;;;1.35;100.00;94569.34;4964254;28;20081;-77
2022/02/03 07:10:41;;;;;;;15.65;12.85;;;;;;;1.20;100.00;94557.84;4959594;28;20420;-76
2022/02/03 07:13:08;;;;;;;14.75;13.32;;;;;;;1.42;100.00;94570.47;4962370;28;20449;-76
2022/02/03 07:15:33;;;;;;;18.67;13.50;;;;;;;1.35;100.00;94571.09;4971179;28;20454;-77
2022/02/03 07:17:59;;;;;;;15.07;13.57;;;;;;;1.41;100.00;94571.38;4964730;28;20031;-76
2022/02/03 07:20:26;;;;;;;18.55;14.60;;;;;;;1.33;100.00;94572.97;4969633;28;20030;-77
2022/02/03 07:22:52;;;;;;;18.95;15.63;;;;;;;1.36;100.00;94567.59;4977718;28;20041;-77
2022/02/03 07:25:17;;;;;;;15.05;13.45;;;;;;;1.51;100.00;94568.91;4964385;28;20114;-78
2022/02/03 07:27:43;;;;;;;16.17;14.48;;;;;;;1.55;100.00;94578.72;4963095;28;20114;-79
2022/02/03 07:30:10;;;;;;;19.80;14.80;;;;;;;1.49;100.00;94578.44;4950643;28;20035;-78
2022/02/03 07:32:36;;;;;;;20.45;15.27;;;;;;;1.43;100.00;94584.03;4963403;28;20428;-77
2022/02/03 07:35:01;;;;;;;17.08;14.15;;;;;;;1.41;100.00;94581.59;4949546;28;20058;-77
2022/02/03 07:37:28;;;;;;;17.38;13.55;;;;;;;1.34;100.00;94582.25;4947875;28;20512;-75
2022/02/03 07:39:54;;;;;;;13.55;12.07;;;;;;;1.41;100.00;94596.13;4958648;28;20481;-77
2022/02/03 07:42:21;;;;;;;15.65;13.75;;;;;;;1.48;100.00;94584.44;4956946;28;20097;-77
2022/02/03 07:44:50;;;;;;;14.48;13.02;;;;;;;1.45;100.00;94580.41;4965278;28;20690;-76
2022/02/03 07:47:16;;;;;;;17.15;14.25;;;;;;;1.67;100.00;94582.00;4966425;28;20054;-77
2022/02/03 07:49:42;;;;;;;15.65;14.05;;;;;;;1.69;100.00;94592.91;4966396;28;20022;-77
2022/02/03 07:52:07;;;;;;;13.48;12.20;;;;;;;2.51;100.00;94589.31;4966929;28;20027;-76
2022/02/03 07:54:33;;;;;;;15.18;13.60;;;;;;;1.80;100.00;94605.59;4952851;28;20018;-76
2022/02/03 07:57:00;;;;;;;15.40;13.82;;;;;;;1.76;100.00;94598.31;4966857;28;20518;-76
2022/02/03 07:59:26;;;;;;;14.52;13.10;;;;;;;1.92;100.00;94602.03;4979138;28;20050;-76
2022/02/03 08:01:51;;;;;;;13.98;12.70;;;;;;;1.69;100.00;94590.38;4966421;28;20508;-76
2022/02/03 08:04:21;;;;;;;16.83;14.23;;;;;;;1.84;100.00;94611.25;4966324;28;20058;-76
2022/02/03 08:06:47;;;;;;;14.60;13.15;;;;;;;1.78;100.00;94616.88;4948875;28;20041;-76
2022/02/03 08:09:24;;;;;;;16.23;14.52;;;;;;;1.68;100.00;94633.84;4947403;28;20130;-76
2022/02/03 08:11:52;;;;;;;15.32;13.68;;;;;;;1.66;100.00;94630.63;4964443;28;20114;-76
2022/02/03 08:14:43;;;;;;;15.35;13.55;;;;;;;1.63;100.00;94636.81;4969511;28;20119;-76
2022/02/03 08:17:11;;;;;;;15.10;13.50;;;;;;;1.67;100.00;94637.38;4963183;28;20055;-76
2022/02/03 08:25:22;;;;;;;20.27;14.13;;;;;;;1.79;100.00;94646.56;4949283;28;20040;-76
2022/02/03 08:32:59;;;;;;;19.25;15.98;;;;;;;1.72;100.00;94659.00;4967446;28;20034;-76
2022/02/03 08:35:45;;;;;;;16.83;14.60;;;;;;;1.91;100.00;94665.97;4952924;28;20033;-76
2022/02/03 08:43:16;;;;;;;19.15;15.82;;;;;;;2.06;100.00;94680.03;4978734;28;20492;-76
2022/02/03 08:45:43;;;;;;;17.05;15.25;;;;;;;2.25;100.00;94685.22;4969143;28;20042;-76
2022/02/03 08:48:11;;;;;;;16.38;14.40;;;;;;;2.35;100.00;94680.97;4964868;28;20440;-76
2022/02/03 08:50:37;;;;;;;16.83;13.93;;;;;;;2.43;100.00;94688.81;4949996;28;20064;-76
2022/02/03 08:53:51;;;;;;;18.30;14.30;;;;;;;2.76;100.00;94690.25;4951147;28;20034;-76
2022/02/03 09:59:51;;;;;;;13.80;11.63;;;;;;;2.99;100.00;94742.81;5071065;28;20501;-75
2022/02/03 10:02:22;;;;;;;13.57;12.15;;;;;;;3.03;100.00;94739.06;5089658;28;20035;-75
2022/02/03 10:04:56;;;;;;;14.00;12.50;;;;;;;3.14;100.00;94746.66;5096829;28;20026;-74
2022/02/03 10:07:28;;;;;;;13.30;11.85;;;;;;;3.30;100.00;94742.78;5101465;28;20023;-74
2022/02/03 10:09:55;;;;;;;14.30;11.77;;;;;;;3.00;100.00;94746.19;5118798;28;20419;-74
2022/02/03 10:12:42;;;;;;;12.93;11.68;;;;;;;3.37;100.00;94757.44;5099679;28;20446;-74
2022/02/03 10:15:10;;;;;;;12.77;11.57;;;;;;;3.49;100.00;94748.72;5098526;28;20126;-74
2022/02/03 10:17:40;;;;;;;13.43;11.60;;;;;;;3.69;100.00;94757.25;5083072;28;20039;-75
2022/02/03 10:20:10;;;;;;;13.13;11.75;;;;;;;3.62;100.00;94756.97;5084009;28;20032;-74
2022/02/03 10:22:49;;;;;;;13.77;12.20;;;;;;;3.68;100.00;94761.53;5100233;28;20062;-74
2022/02/03 10:25:22;;;;;;;15.68;11.82;;;;;;;3.62;100.00;94762.09;5082933;28;20031;-74
2022/02/03 10:28:00;;;;;;;14.02;11.50;;;;;;;3.83;100.00;94763.69;5080398;28;20040;-74
2022/02/03 10:30:34;;;;;;;13.25;11.25;;;;;;;3.87;100.00;94757.34;5056370;28;20127;-74
2022/02/03 10:33:00;;;;;;;13.82;12.32;;;;;;;3.87;100.00;94765.03;5089405;28;20420;-74
2022/02/03 10:35:37;;;;;;;14.98;12.30;;;;;;;3.71;100.00;94765.59;5067344;28;20036;-75
2022/02/03 10:49:51;;;;;;;12.23;10.98;;;;;;;4.64;100.00;94758.06;5072923;28;20020;-75
2022/02/03 10:55:03;;;;;;;12.68;11.40;;;;;;;4.70;98.17;94758.31;5075024;28;20112;-74
2022/02/03 11:05:50;;;;;;;12.35;11.10;;;;;;;5.00;96.40;94762.38;5102947;28;20520;-75
2022/02/03 11:08:27;;;;;;;11.60;10.48;;;;;;;5.58;93.34;94765.44;5100020;28;20032;-75
2022/02/03 11:10:59;;;;;;;11.70;10.55;;;;;;;5.53;94.96;94748.84;5101991;27;20476;-75
2022/02/03 11:13:29;;;;;;;11.98;10.82;;;;;;;5.00;95.35;94756.44;5072128;28;20040;-75
2022/02/03 11:15:55;;;;;;;13.02;11.65;;;;;;;5.15;96.45;94749.88;5069052;28;20036;-75
2022/02/03 11:18:24;;;;;;;11.07;9.98;;;;;;;5.05;94.49;94747.34;5068271;28;20050;-75
2022/02/03 11:20:50;;;;;;;12.30;11.00;;;;;;;5.06;94.30;94743.84;5087845;28;20089;-74
2022/02/03 11:31:33;;;;;;;14.75;13.25;;;;;;;5.07;95.20;94748.00;5067692;28;20043;-75
2022/02/03 11:44:57;;;;;;;16.50;14.80;;;;;;;5.89;89.33;94747.13;5066871;28;20030;-74
2022/02/03 11:50:56;;;;;;;15.05;13.48;;;;;;;6.34;86.16;94735.78;5084527;28;20146;-75
2022/02/03 12:01:45;;;;;;;12.55;11.35;;;;;;;5.22;90.33;94735.53;5066854;28;20100;-75
2022/02/03 12:04:38;;;;;;;15.50;12.20;;;;;;;4.63;93.14;94738.47;5087201;28;20024;-75
2022/02/03 12:07:25;;;;;;;15.38;13.65;;;;;;;5.12;93.05;94729.63;5054599;28;20020;-75
2022/02/03 12:20:36;;;;;;;13.70;12.27;;;;;;;4.27;96.76;94736.69;5099187;28;20092;-75
2022/02/03 12:23:07;;;;;;;;;;;;;;;4.31;97.08;94731.16;5067537;28;20028;-75
2022/02/03 12:25:44;;;;;;;14.00;10.80;;;;;;;4.34;97.15;94738.56;5085320;28;19919;-75
2022/02/03 12:28:22;;;;;;;10.82;9.73;;;;;;;4.47;96.11;94738.25;5080139;28;20047;-75
2022/02/03 12:38:56;;;;;;;9.55;8.80;;;;;;;4.38;97.72;94750.16;5068606;28;20111;-75
2022/02/03 12:41:34;;;;;;;;;;;;;;;4.33;98.38;94757.47;5085166;28;20024;-76
2022/02/03 12:44:04;;;;;;;12.98;9.52;;;;;;;4.40;97.75;94755.94;5051986;28;19920;-76
2022/02/03 12:46:29;;;;;;;12.85;9.98;;;;;;;4.63;96.62;94749.53;5068462;28;20124;-76
2022/02/03 12:48:56;;;;;;;11.43;10.38;;;;;;;4.61;94.89;94755.75;5058419;28;20486;-75
2022/02/03 12:51:23;;;;;;;13.02;10.80;;;;;;;4.68;95.72;94752.50;5074887;28;20123;-76
2022/02/03 12:53:49;;;;;;;10.82;9.23;;;;;;;4.49;96.13;94755.13;5063737;28;20024;-76
2022/02/03 12:56:15;;;;;;;9.88;8.85;;;;;;;4.90;95.65;94758.22;5085461;28;20550;-76
2022/02/03 12:58:46;;;;;;;8.43;7.72;;;;;;;5.17;94.86;94759.03;5049091;28;20399;-76
2022/02/03 13:01:17;;;;;;;7.38;6.78;;;;;;;4.92;94.74;94753.75;5085108;28;20817;-75
2022/02/03 13:03:47;;;;;;;7.93;6.88;;;;;;;4.67;95.00;94748.31;5064967;28;20078;-75
2022/02/03 13:06:19;;;;;;;8.80;6.97;;;;;;;5.00;95.29;94757.25;5099449;28;20496;-75
2022/02/03 13:08:48;;;;;;;7.03;6.43;;;;;;;5.11;95.32;94753.66;5065185;28;20093;-75
2022/02/03 13:11:23;;;;;;;7.45;6.72;;;;;;;4.97;94.85;94757.53;5063943;28;20107;-75
2022/02/03 13:16:29;;;;;;;6.05;5.55;;;;;;;4.41;97.35;94762.69;5082301;28;20040;-75
2022/02/03 13:19:14;;;;;;;5.97;5.20;;;;;;;3.93;99.99;94767.88;5066561;28;20493;-75
2022/02/03 13:22:46;;;;;;;6.35;4.85;;;;;;;3.92;100.00;94780.81;5096928;28;20449;-75
2022/02/03 13:25:02;;;;;;;7.13;6.03;;;;;;;3.94;100.00;94791.75;5054131;28;20047;-75
2022/02/03 13:27:34;;;;;;;6.90;6.20;;;;;;;3.82;100.00;94785.13;5069129;28;20032;-76
2022/02/03 13:30:06;;;;;;;6.93;6.32;;;;;;;4.05;100.00;94783.91;5067298;28;20016;-75
2022/02/03 13:32:45;;;;;;;8.70;7.28;;;;;;;3.91;100.00;94789.44;5079547;28;20031;-75
2022/02/03 13:37:53;;;;;;;9.18;8.13;;;;;;;3.84;100.00;94796.03;5064948;28;20475;-75
2022/02/03 13:40:19;;;;;;;8.05;7.30;;;;;;;3.60;100.00;94799.78;5102821;28;20043;-75
2022/02/03 13:42:52;;;;;;;8.80;7.72;;;;;;;3.64;100.00;94808.00;5102239;28;20036;-75
2022/02/03 13:45:21;;;;;;;6.70;6.00;;;;;;;3.23;100.00;94819.25;5102521;28;20053;-75
2022/02/03 13:47:48;;;;;;;6.50;6.00;;;;;;;3.23;100.00;94819.25;5103470;28;20036;-75
2022/02/03 13:50:24;;;;;;;8.70;7.80;;;;;;;2.88;100.00;94829.06;5101865;28;20305;-75
2022/02/03 13:53:03;;;;;;;4.90;4.50;;;;;;;2.75;100.00;94836.13;5087477;28;20020;-75
2022/02/03 14:18:11;;;;;;;30.48;18.45;;;;;;;2.20;100.00;94876.38;5089689;28;20024;-74
2022/02/03 14:28:16;;;;;;;7.43;4.60;;;;;;;2.11;100.00;94887.31;5055747;28;20056;-75
2022/02/03 14:30:46;;;;;;;7.60;6.93;;;;;;;2.37;100.00;94896.28;5044957;28;20029;-74
2022/02/03 14:33:16;;;;;;;7.70;6.95;;;;;;;2.53;100.00;94885.63;5044228;28;20020;-75
2022/02/03 14:35:43;;;;;;;9.77;8.98;;;;;;;2.47;100.00;94886.91;5045832;28;20083;-75
2022/02/03 14:38:20;;;;;;;10.95;9.98;;;;;;;2.42;100.00;94896.69;5045283;28;20091;-75
2022/02/03 14:41:04;;;;;;;10.70;9.13;;;;;;;2.45;100.00;94896.44;5047241;28;20025;-75
2022/02/03 14:43:30;;;;;;;9.65;8.75;;;;;;;2.71;100.00;94896.09;5046786;28;20031;-74
2022/02/03 14:45:57;;;;;;;10.40;9.50;;;;;;;2.72;100.00;94895.97;5047304;28;20033;-75
2022/02/03 14:48:23;;;;;;;12.18;9.55;;;;;;;2.69;100.00;94893.69;5030988;28;20076;-75
2022/02/03 14:50:50;;;;;;;10.60;9.68;;;;;;;2.69;100.00;94897.97;5046666;28;20037;-75
2022/02/03 14:53:19;;;;;;;10.30;9.40;;;;;;;2.65;100.00;94898.22;5046005;28;20017;-76
2022/02/03 14:58:30;;;;;;;9.60;8.70;;;;;;;2.57;100.00;94899.75;5049148;28;20032;-75
2022/02/03 15:00:57;;;;;;;11.02;10.02;;;;;;;2.37;100.00;94898.81;5021309;28;20411;-76
2022/02/03 15:03:24;;;;;;;11.05;9.98;;;;;;;2.33;100.00;94901.75;5040829;28;20036;-76
2022/02/03 15:05:50;;;;;;;12.63;10.45;;;;;;;2.29;100.00;94898.63;5076877;28;20089;-76
2022/02/03 15:13:34;;;;;;;10.60;9.60;;;;;;;2.38;100.00;94905.53;5039495;28;20037;-76
2022/02/03 15:16:00;;;;;;;11.70;10.63;;;;;;;2.34;100.00;94906.75;5044521;28;20091;-76
2022/02/03 15:18:27;;;;;;;17.13;13.93;;;;;;;2.24;100.00;94910.13;5044572;28;20029;-76
2022/02/03 15:20:52;;;;;;;23.80;18.27;;;;;;;2.04;100.00;94906.59;5036231;28;20502;-75
2022/02/03 15:23:18;;;;;;;23.17;17.88;;;;;;;1.90;100.00;94917.06;5025913;28;20094;-76
2022/02/03 15:25:43;;;;;;;21.58;16.05;;;;;;;2.22;100.00;94909.44;5041875;28;20108;-76
2022/02/03 15:28:09;;;;;;;13.48;11.75;;;;;;;1.85;100.00;94912.34;5036467;28;20121;-75
2022/02/03 15:30:34;;;;;;;19.58;15.38;;;;;;;2.10;100.00;94924.81;5044588;28;20066;-73
2022/02/03 15:33:00;;;;;;;15.27;13.77;;;;;;;1.97;100.00;94923.31;5049988;28;20031;-73
2022/02/03 15:35:35;;;;;;;17.77;15.50;;;;;;;1.93;100.00;94920.19;5035781;28;20059;-73
2022/02/03 15:38:01;;;;;;;18.75;14.75;;;;;;;1.81;100.00;94915.22;5048753;28;20036;-73
2022/02/03 15:40:29;;;;;;;14.38;12.88;;;;;;;1.87;100.00;94924.97;5062007;28;20032;-73
2022/02/03 15:45:21;;;;;;;11.07;10.00;;;;;;;1.88;100.00;94932.53;5059825;28;20115;-73
2022/02/03 15:47:53;;;;;;;13.02;11.25;;;;;;;1.87;100.00;94933.44;5041375;28;20119;-74
2022/02/03 16:53:53;;;;;;;11.05;9.95;;;;;;;1.28;100.00;95045.13;5108572;27;20039;-75
2022/02/03 16:56:22;;;;;;;14.00;10.10;;;;;;;1.24;100.00;95053.91;5107031;27;20488;-74
2022/02/03 16:58:48;;;;;;;12.30;10.77;;;;;;;1.14;100.00;95052.97;5128244;27;20023;-74
